sensor_id;sensor_type;location;lat;lon;timestamp;P1;durP1;ratioP1;P2;durP2;ratioP2
76425;SDS011;65258;42.680;23.266;2022-12-18T00:01:34;6.47;;;3.72;;
76425;SDS011;65258;42.680;23.266;2022-12-18T00:04:02;8.85;;;4.18;;
76425;SDS011;65258;42.680;23.266;2022-12-18T00:06:29;6.40;;;3.75;;
76425;SDS011;65258;42.680;23.266;2022-12-18T00:08:56;9.13;;;4.25;;
76425;SDS011;65258;42.680;23.266;2022-12-18T00:13:49;6.80;;;3.78;;
76425;SDS011;65258;42.680;23.266;2022-12-18T00:16:16;7.45;;;4.22;;
76425;SDS011;65258;42.680;23.266;2022-12-18T00:18:46;7.13;;;4.03;;
76425;SDS011;65258;42.680;23.266;2022-12-18T00:21:14;7.25;;;3.85;;
76425;SDS011;65258;42.680;23.266;2022-12-18T00:23:41;8.32;;;4.28;;
76425;SDS011;65258;42.680;23.266;2022-12-18T00:26:10;7.43;;;4.60;;
76425;SDS011;65258;42.680;23.266;2022-12-18T00:28:37;7.22;;;3.92;;
76425;SDS011;65258;42.680;23.266;2022-12-18T00:31:03;7.28;;;4.47;;
76425;SDS011;65258;42.680;23.266;2022-12-18T00:33:30;6.25;;;3.83;;
76425;SDS011;65258;42.680;23.266;2022-12-18T00:36:07;9.95;;;4.63;;
76425;SDS011;65258;42.680;23.266;2022-12-18T00:38:37;8.18;;;4.88;;
76425;SDS011;65258;42.680;23.266;2022-12-18T00:41:03;7.45;;;4.50;;
76425;SDS011;65258;42.680;23.266;2022-12-18T00:43:29;7.75;;;4.32;;
76425;SDS011;65258;42.680;23.266;2022-12-18T00:45:55;8.80;;;4.32;;
76425;SDS011;65258;42.680;23.266;2022-12-18T00:48:20;6.13;;;3.45;;
76425;SDS011;65258;42.680;23.266;2022-12-18T00:50:47;8.13;;;4.57;;
76425;SDS011;65258;42.680;23.266;2022-12-18T00:53:14;9.43;;;4.35;;
76425;SDS011;65258;42.680;23.266;2022-12-18T00:55:40;7.72;;;4.45;;
76425;SDS011;65258;42.680;23.266;2022-12-18T00:58:06;9.90;;;5.45;;
76425;SDS011;65258;42.680;23.266;2022-12-18T01:00:40;7.63;;;4.13;;
76425;SDS011;65258;42.680;23.266;2022-12-18T01:03:10;8.25;;;4.88;;
76425;SDS011;65258;42.680;23.266;2022-12-18T01:05:40;6.68;;;4.32;;
76425;SDS011;65258;42.680;23.266;2022-12-18T01:08:06;7.20;;;4.30;;
76425;SDS011;65258;42.680;23.266;2022-12-18T01:10:32;7.47;;;4.63;;
76425;SDS011;65258;42.680;23.266;2022-12-18T01:12:57;7.70;;;4.40;;
76425;SDS011;65258;42.680;23.266;2022-12-18T01:15:23;7.95;;;3.95;;
76425;SDS011;65258;42.680;23.266;2022-12-18T01:17:48;8.05;;;4.82;;
76425;SDS011;65258;42.680;23.266;2022-12-18T01:20:16;7.55;;;4.32;;
76425;SDS011;65258;42.680;23.266;2022-12-18T01:22:42;9.10;;;4.43;;
76425;SDS011;65258;42.680;23.266;2022-12-18T01:25:08;8.07;;;4.80;;
76425;SDS011;65258;42.680;23.266;2022-12-18T01:27:33;9.02;;;4.97;;
76425;SDS011;65258;42.680;23.266;2022-12-18T01:29:59;10.60;;;5.47;;
76425;SDS011;65258;42.680;23.266;2022-12-18T01:32:25;8.98;;;4.70;;
76425;SDS011;65258;42.680;23.266;2022-12-18T01:34:50;8.77;;;4.63;;
76425;SDS011;65258;42.680;23.266;2022-12-18T01:37:16;7.95;;;4.72;;
76425;SDS011;65258;42.680;23.266;2022-12-18T01:39:42;7.22;;;4.53;;
76425;SDS011;65258;42.680;23.266;2022-12-18T01:42:11;9.95;;;5.18;;
76425;SDS011;65258;42.680;23.266;2022-12-18T01:47:44;9.27;;;4.63;;
76425;SDS011;65258;42.680;23.266;2022-12-18T01:50:17;8.48;;;4.97;;
76425;SDS011;65258;42.680;23.266;2022-12-18T01:52:43;7.78;;;4.72;;
76425;SDS011;65258;42.680;23.266;2022-12-18T01:55:13;7.68;;;4.45;;
76425;SDS011;65258;42.680;23.266;2022-12-18T01:57:41;8.40;;;4.65;;
76425;SDS011;65258;42.680;23.266;2022-12-18T02:00:09;8.85;;;5.10;;
76425;SDS011;65258;42.680;23.266;2022-12-18T02:02:40;6.53;;;4.57;;
76425;SDS011;65258;42.680;23.266;2022-12-18T02:05:09;10.10;;;4.82;;
76425;SDS011;65258;42.680;23.266;2022-12-18T02:13:08;10.13;;;4.75;;
76425;SDS011;65258;42.680;23.266;2022-12-18T02:15:48;10.50;;;5.65;;
76425;SDS011;65258;42.680;23.266;2022-12-18T02:18:33;7.60;;;4.15;;
76425;SDS011;65258;42.680;23.266;2022-12-18T02:26:43;8.88;;;4.22;;
76425;SDS011;65258;42.680;23.266;2022-12-18T02:31:53;8.63;;;4.28;;
76425;SDS011;65258;42.680;23.266;2022-12-18T02:34:27;7.57;;;5.00;;
76425;SDS011;65258;42.680;23.266;2022-12-18T02:36:58;7.57;;;4.70;;
76425;SDS011;65258;42.680;23.266;2022-12-18T02:39:27;7.05;;;4.15;;
76425;SDS011;65258;42.680;23.266;2022-12-18T02:42:00;7.20;;;4.10;;
76425;SDS011;65258;42.680;23.266;2022-12-18T02:44:32;8.13;;;4.32;;
76425;SDS011;65258;42.680;23.266;2022-12-18T02:46:59;9.40;;;5.18;;
76425;SDS011;65258;42.680;23.266;2022-12-18T02:54:47;6.95;;;4.50;;
76425;SDS011;65258;42.680;23.266;2022-12-18T02:57:41;6.43;;;3.83;;
76425;SDS011;65258;42.680;23.266;2022-12-18T03:00:12;5.22;;;3.90;;
76425;SDS011;65258;42.680;23.266;2022-12-18T03:02:46;8.05;;;4.63;;
76425;SDS011;65258;42.680;23.266;2022-12-18T03:10:42;9.52;;;4.93;;
76425;SDS011;65258;42.680;23.266;2022-12-18T03:15:49;6.45;;;3.92;;
76425;SDS011;65258;42.680;23.266;2022-12-18T03:18:23;7.15;;;4.00;;
76425;SDS011;65258;42.680;23.266;2022-12-18T03:20:53;10.80;;;5.55;;
76425;SDS011;65258;42.680;23.266;2022-12-18T03:23:24;8.07;;;4.28;;
76425;SDS011;65258;42.680;23.266;2022-12-18T03:26:01;7.85;;;4.85;;
76425;SDS011;65258;42.680;23.266;2022-12-18T03:28:34;7.03;;;4.60;;
76425;SDS011;65258;42.680;23.266;2022-12-18T03:31:22;7.05;;;4.55;;
76425;SDS011;65258;42.680;23.266;2022-12-18T03:34:24;8.18;;;5.03;;
76425;SDS011;65258;42.680;23.266;2022-12-18T03:36:46;8.15;;;4.80;;
76425;SDS011;65258;42.680;23.266;2022-12-18T03:39:12;7.88;;;4.55;;
76425;SDS011;65258;42.680;23.266;2022-12-18T03:42:08;8.02;;;4.70;;
76425;SDS011;65258;42.680;23.266;2022-12-18T04:08:13;7.22;;;4.05;;
76425;SDS011;65258;42.680;23.266;2022-12-18T16:13:16;15.57;;;6.30;;
76425;SDS011;65258;42.680;23.266;2022-12-18T16:15:44;14.00;;;6.70;;
76425;SDS011;65258;42.680;23.266;2022-12-18T16:18:10;12.57;;;6.68;;
76425;SDS011;65258;42.680;23.266;2022-12-18T16:20:36;17.48;;;6.70;;
76425;SDS011;65258;42.680;23.266;2022-12-18T16:23:03;12.80;;;6.38;;
76425;SDS011;65258;42.680;23.266;2022-12-18T16:25:28;13.52;;;6.22;;
76425;SDS011;65258;42.680;23.266;2022-12-18T16:27:54;16.67;;;8.13;;
76425;SDS011;65258;42.680;23.266;2022-12-18T16:30:25;17.05;;;8.45;;
76425;SDS011;65258;42.680;23.266;2022-12-18T16:32:59;17.38;;;9.40;;
76425;SDS011;65258;42.680;23.266;2022-12-18T16:35:25;18.88;;;7.88;;
76425;SDS011;65258;42.680;23.266;2022-12-18T16:37:51;19.15;;;8.93;;
76425;SDS011;65258;42.680;23.266;2022-12-18T16:40:17;17.92;;;8.23;;
76425;SDS011;65258;42.680;23.266;2022-12-18T16:42:44;18.17;;;8.93;;
76425;SDS011;65258;42.680;23.266;2022-12-18T16:45:11;16.33;;;8.05;;
76425;SDS011;65258;42.680;23.266;2022-12-18T16:47:39;14.60;;;7.32;;
76425;SDS011;65258;42.680;23.266;2022-12-18T16:50:05;18.27;;;8.85;;
76425;SDS011;65258;42.680;23.266;2022-12-18T16:52:31;16.25;;;7.75;;
76425;SDS011;65258;42.680;23.266;2022-12-18T16:54:56;13.73;;;7.13;;
76425;SDS011;65258;42.680;23.266;2022-12-18T16:57:22;15.95;;;8.00;;
76425;SDS011;65258;42.680;23.266;2022-12-18T16:59:48;16.25;;;8.05;;
76425;SDS011;65258;42.680;23.266;2022-12-18T17:02:14;16.48;;;8.43;;
76425;SDS011;65258;42.680;23.266;2022-12-18T17:04:54;15.80;;;8.13;;
76425;SDS011;65258;42.680;23.266;2022-12-18T17:07:21;16.85;;;7.90;;
76425;SDS011;65258;42.680;23.266;2022-12-18T17:09:47;17.40;;;7.70;;
76425;SDS011;65258;42.680;23.266;2022-12-18T17:12:14;16.90;;;7.95;;
76425;SDS011;65258;42.680;23.266;2022-12-18T17:14:40;15.98;;;7.63;;
76425;SDS011;65258;42.680;23.266;2022-12-18T17:17:05;12.10;;;7.28;;
76425;SDS011;65258;42.680;23.266;2022-12-18T17:19:31;16.15;;;6.93;;
76425;SDS011;65258;42.680;23.266;2022-12-18T17:21:57;14.15;;;7.05;;
76425;SDS011;65258;42.680;23.266;2022-12-18T17:24:24;15.68;;;7.57;;
76425;SDS011;65258;42.680;23.266;2022-12-18T17:26:49;12.98;;;6.93;;
76425;SDS011;65258;42.680;23.266;2022-12-18T17:29:16;16.60;;;7.72;;
76425;SDS011;65258;42.680;23.266;2022-12-18T17:31:44;14.30;;;7.63;;
76425;SDS011;65258;42.680;23.266;2022-12-18T17:34:10;17.70;;;9.48;;
76425;SDS011;65258;42.680;23.266;2022-12-18T17:36:36;21.25;;;8.98;;
76425;SDS011;65258;42.680;23.266;2022-12-18T17:39:02;19.02;;;9.30;;
76425;SDS011;65258;42.680;23.266;2022-12-18T17:41:28;17.77;;;8.65;;
76425;SDS011;65258;42.680;23.266;2022-12-18T17:43:56;15.00;;;7.63;;
76425;SDS011;65258;42.680;23.266;2022-12-18T17:46:23;17.25;;;8.48;;
76425;SDS011;65258;42.680;23.266;2022-12-18T17:48:50;20.63;;;9.50;;
76425;SDS011;65258;42.680;23.266;2022-12-18T17:51:16;25.15;;;10.02;;
76425;SDS011;65258;42.680;23.266;2022-12-18T17:53:42;15.88;;;7.53;;
76425;SDS011;65258;42.680;23.266;2022-12-18T17:56:09;18.20;;;8.25;;
76425;SDS011;65258;42.680;23.266;2022-12-18T17:58:37;19.00;;;9.50;;
76425;SDS011;65258;42.680;23.266;2022-12-18T18:01:03;20.63;;;9.10;;
76425;SDS011;65258;42.680;23.266;2022-12-18T18:03:30;16.27;;;8.00;;
76425;SDS011;65258;42.680;23.266;2022-12-18T18:05:57;17.00;;;8.85;;
76425;SDS011;65258;42.680;23.266;2022-12-18T18:08:24;19.98;;;8.75;;
76425;SDS011;65258;42.680;23.266;2022-12-18T18:10:50;19.40;;;9.13;;
76425;SDS011;65258;42.680;23.266;2022-12-18T18:16:04;17.83;;;8.23;;
76425;SDS011;65258;42.680;23.266;2022-12-18T18:18:30;17.90;;;8.35;;
76425;SDS011;65258;42.680;23.266;2022-12-18T18:20:55;16.88;;;7.60;;
76425;SDS011;65258;42.680;23.266;2022-12-18T18:23:21;17.02;;;7.70;;
76425;SDS011;65258;42.680;23.266;2022-12-18T18:25:53;14.43;;;7.97;;
76425;SDS011;65258;42.680;23.266;2022-12-18T18:28:18;16.90;;;8.52;;
76425;SDS011;65258;42.680;23.266;2022-12-18T18:30:44;15.82;;;8.32;;
76425;SDS011;65258;42.680;23.266;2022-12-18T18:33:10;13.98;;;7.20;;
76425;SDS011;65258;42.680;23.266;2022-12-18T18:35:40;11.98;;;6.45;;
76425;SDS011;65258;42.680;23.266;2022-12-18T18:38:06;13.52;;;6.80;;
76425;SDS011;65258;42.680;23.266;2022-12-18T18:40:32;15.25;;;7.22;;
76425;SDS011;65258;42.680;23.266;2022-12-18T18:42:57;14.65;;;6.40;;
76425;SDS011;65258;42.680;23.266;2022-12-18T18:45:23;17.08;;;8.10;;
76425;SDS011;65258;42.680;23.266;2022-12-18T18:47:49;16.77;;;7.63;;
76425;SDS011;65258;42.680;23.266;2022-12-18T18:50:14;14.38;;;7.82;;
76425;SDS011;65258;42.680;23.266;2022-12-18T18:52:40;16.23;;;7.63;;
76425;SDS011;65258;42.680;23.266;2022-12-18T18:55:05;15.23;;;7.43;;
76425;SDS011;65258;42.680;23.266;2022-12-18T18:57:32;16.98;;;8.75;;
76425;SDS011;65258;42.680;23.266;2022-12-18T18:59:57;16.42;;;7.93;;
76425;SDS011;65258;42.680;23.266;2022-12-18T19:02:23;23.77;;;8.65;;
76425;SDS011;65258;42.680;23.266;2022-12-18T19:04:48;17.38;;;8.07;;
76425;SDS011;65258;42.680;23.266;2022-12-18T19:07:14;15.85;;;7.32;;
76425;SDS011;65258;42.680;23.266;2022-12-18T19:09:40;19.08;;;8.15;;
76425;SDS011;65258;42.680;23.266;2022-12-18T19:12:06;18.42;;;8.02;;
76425;SDS011;65258;42.680;23.266;2022-12-18T19:14:52;16.00;;;8.10;;
76425;SDS011;65258;42.680;23.266;2022-12-18T19:17:18;16.75;;;9.18;;
76425;SDS011;65258;42.680;23.266;2022-12-18T19:19:43;17.80;;;7.93;;
76425;SDS011;65258;42.680;23.266;2022-12-18T19:22:09;18.52;;;9.00;;
76425;SDS011;65258;42.680;23.266;2022-12-18T19:24:35;14.57;;;6.63;;
76425;SDS011;65258;42.680;23.266;2022-12-18T19:27:01;15.73;;;8.02;;
76425;SDS011;65258;42.680;23.266;2022-12-18T19:29:26;16.50;;;7.65;;
76425;SDS011;65258;42.680;23.266;2022-12-18T19:31:52;15.48;;;7.18;;
76425;SDS011;65258;42.680;23.266;2022-12-18T19:34:17;14.75;;;6.93;;
76425;SDS011;65258;42.680;23.266;2022-12-18T19:36:43;17.55;;;8.40;;
76425;SDS011;65258;42.680;23.266;2022-12-18T19:39:10;15.88;;;7.20;;
76425;SDS011;65258;42.680;23.266;2022-12-18T19:41:37;15.02;;;7.20;;
76425;SDS011;65258;42.680;23.266;2022-12-18T19:44:03;19.05;;;7.63;;
76425;SDS011;65258;42.680;23.266;2022-12-18T19:46:29;15.77;;;7.47;;
76425;SDS011;65258;42.680;23.266;2022-12-18T19:48:55;15.70;;;7.15;;
76425;SDS011;65258;42.680;23.266;2022-12-18T19:51:24;14.77;;;7.95;;
76425;SDS011;65258;42.680;23.266;2022-12-18T19:53:51;19.52;;;8.43;;
76425;SDS011;65258;42.680;23.266;2022-12-18T19:56:18;14.05;;;6.72;;
76425;SDS011;65258;42.680;23.266;2022-12-18T19:58:46;16.98;;;7.70;;
76425;SDS011;65258;42.680;23.266;2022-12-18T20:01:13;18.15;;;8.55;;
76425;SDS011;65258;42.680;23.266;2022-12-18T20:03:39;19.00;;;7.82;;
76425;SDS011;65258;42.680;23.266;2022-12-18T20:06:09;17.83;;;8.60;;
76425;SDS011;65258;42.680;23.266;2022-12-18T20:08:36;17.95;;;8.50;;
76425;SDS011;65258;42.680;23.266;2022-12-18T20:11:02;14.82;;;7.50;;
76425;SDS011;65258;42.680;23.266;2022-12-18T20:13:27;20.10;;;9.57;;
76425;SDS011;65258;42.680;23.266;2022-12-18T20:15:53;17.58;;;8.00;;
76425;SDS011;65258;42.680;23.266;2022-12-18T20:18:18;17.00;;;8.23;;
76425;SDS011;65258;42.680;23.266;2022-12-18T20:20:44;12.80;;;6.10;;
76425;SDS011;65258;42.680;23.266;2022-12-18T20:23:09;13.43;;;6.60;;
76425;SDS011;65258;42.680;23.266;2022-12-18T20:25:36;16.20;;;8.40;;
76425;SDS011;65258;42.680;23.266;2022-12-18T20:28:02;15.65;;;8.48;;
76425;SDS011;65258;42.680;23.266;2022-12-18T20:30:28;17.30;;;8.68;;
76425;SDS011;65258;42.680;23.266;2022-12-18T20:32:53;18.10;;;8.30;;
76425;SDS011;65258;42.680;23.266;2022-12-18T20:35:19;19.98;;;8.05;;
76425;SDS011;65258;42.680;23.266;2022-12-18T20:37:44;16.42;;;8.82;;
76425;SDS011;65258;42.680;23.266;2022-12-18T20:40:10;16.85;;;8.15;;
76425;SDS011;65258;42.680;23.266;2022-12-18T20:42:35;17.55;;;8.60;;
76425;SDS011;65258;42.680;23.266;2022-12-18T20:45:01;16.40;;;8.00;;
76425;SDS011;65258;42.680;23.266;2022-12-18T20:47:27;16.23;;;7.75;;
76425;SDS011;65258;42.680;23.266;2022-12-18T20:49:52;16.92;;;8.15;;
76425;SDS011;65258;42.680;23.266;2022-12-18T20:52:18;17.45;;;7.78;;
76425;SDS011;65258;42.680;23.266;2022-12-18T20:54:43;16.75;;;8.75;;
76425;SDS011;65258;42.680;23.266;2022-12-18T20:57:09;14.85;;;7.68;;
76425;SDS011;65258;42.680;23.266;2022-12-18T20:59:34;13.65;;;6.22;;
76425;SDS011;65258;42.680;23.266;2022-12-18T21:02:00;18.80;;;8.23;;
76425;SDS011;65258;42.680;23.266;2022-12-18T21:04:25;21.17;;;9.63;;
76425;SDS011;65258;42.680;23.266;2022-12-18T21:06:51;18.27;;;8.52;;
76425;SDS011;65258;42.680;23.266;2022-12-18T21:09:18;14.43;;;7.95;;
76425;SDS011;65258;42.680;23.266;2022-12-18T21:11:44;20.30;;;8.13;;
76425;SDS011;65258;42.680;23.266;2022-12-18T21:14:28;15.15;;;7.97;;
76425;SDS011;65258;42.680;23.266;2022-12-18T21:16:57;21.50;;;9.05;;
76425;SDS011;65258;42.680;23.266;2022-12-18T21:19:25;18.70;;;8.93;;
76425;SDS011;65258;42.680;23.266;2022-12-18T21:21:52;20.48;;;9.45;;
76425;SDS011;65258;42.680;23.266;2022-12-18T21:24:19;16.35;;;7.50;;
76425;SDS011;65258;42.680;23.266;2022-12-18T21:26:45;14.50;;;7.72;;
76425;SDS011;65258;42.680;23.266;2022-12-18T21:29:13;18.80;;;8.00;;
76425;SDS011;65258;42.680;23.266;2022-12-18T21:31:41;19.08;;;9.20;;
76425;SDS011;65258;42.680;23.266;2022-12-18T21:34:07;19.33;;;8.48;;
76425;SDS011;65258;42.680;23.266;2022-12-18T21:36:38;16.30;;;7.30;;
76425;SDS011;65258;42.680;23.266;2022-12-18T21:39:04;17.60;;;8.57;;
76425;SDS011;65258;42.680;23.266;2022-12-18T21:41:29;17.63;;;8.25;;
76425;SDS011;65258;42.680;23.266;2022-12-18T21:44:14;22.33;;;10.10;;
76425;SDS011;65258;42.680;23.266;2022-12-18T21:46:43;18.73;;;9.07;;
76425;SDS011;65258;42.680;23.266;2022-12-18T21:49:10;19.73;;;8.65;;
76425;SDS011;65258;42.680;23.266;2022-12-18T21:51:38;23.45;;;11.02;;
76425;SDS011;65258;42.680;23.266;2022-12-18T21:54:04;17.63;;;8.30;;
76425;SDS011;65258;42.680;23.266;2022-12-18T21:59:12;18.27;;;8.20;;
76425;SDS011;65258;42.680;23.266;2022-12-18T22:01:39;18.10;;;8.75;;
76425;SDS011;65258;42.680;23.266;2022-12-18T22:04:05;15.63;;;7.22;;
76425;SDS011;65258;42.680;23.266;2022-12-18T22:06:30;17.95;;;7.22;;
76425;SDS011;65258;42.680;23.266;2022-12-18T22:08:56;17.70;;;8.18;;
76425;SDS011;65258;42.680;23.266;2022-12-18T22:11:21;15.55;;;7.53;;
76425;SDS011;65258;42.680;23.266;2022-12-18T22:13:47;20.67;;;8.60;;
76425;SDS011;65258;42.680;23.266;2022-12-18T22:16:12;17.45;;;7.43;;
76425;SDS011;65258;42.680;23.266;2022-12-18T22:18:38;17.58;;;8.48;;
76425;SDS011;65258;42.680;23.266;2022-12-18T22:21:04;18.42;;;7.65;;
76425;SDS011;65258;42.680;23.266;2022-12-18T22:23:30;17.08;;;7.90;;
76425;SDS011;65258;42.680;23.266;2022-12-18T22:25:55;17.25;;;8.48;;
76425;SDS011;65258;42.680;23.266;2022-12-18T22:28:21;16.48;;;7.15;;
76425;SDS011;65258;42.680;23.266;2022-12-18T22:31:06;18.15;;;7.43;;
76425;SDS011;65258;42.680;23.266;2022-12-18T22:33:31;19.40;;;8.45;;
76425;SDS011;65258;42.680;23.266;2022-12-18T22:36:02;20.48;;;8.35;;
76425;SDS011;65258;42.680;23.266;2022-12-18T22:38:29;20.33;;;9.40;;
76425;SDS011;65258;42.680;23.266;2022-12-18T22:40:54;17.95;;;7.93;;
76425;SDS011;65258;42.680;23.266;2022-12-18T22:43:20;16.55;;;8.05;;
76425;SDS011;65258;42.680;23.266;2022-12-18T22:45:45;19.65;;;8.35;;
76425;SDS011;65258;42.680;23.266;2022-12-18T22:48:13;16.27;;;8.35;;
76425;SDS011;65258;42.680;23.266;2022-12-18T22:50:39;16.45;;;9.27;;
76425;SDS011;65258;42.680;23.266;2022-12-18T22:53:04;12.20;;;7.05;;
76425;SDS011;65258;42.680;23.266;2022-12-18T22:55:32;19.50;;;9.02;;
76425;SDS011;65258;42.680;23.266;2022-12-18T22:57:58;20.13;;;8.60;;
76425;SDS011;65258;42.680;23.266;2022-12-18T23:00:23;17.73;;;8.73;;
76425;SDS011;65258;42.680;23.266;2022-12-18T23:02:49;18.58;;;8.52;;
76425;SDS011;65258;42.680;23.266;2022-12-18T23:05:16;18.60;;;8.73;;
76425;SDS011;65258;42.680;23.266;2022-12-18T23:07:41;15.52;;;8.30;;
76425;SDS011;65258;42.680;23.266;2022-12-18T23:10:07;20.08;;;9.25;;
76425;SDS011;65258;42.680;23.266;2022-12-18T23:12:33;17.42;;;8.00;;
76425;SDS011;65258;42.680;23.266;2022-12-18T23:15:02;21.00;;;8.90;;
76425;SDS011;65258;42.680;23.266;2022-12-18T23:17:28;18.95;;;8.52;;
76425;SDS011;65258;42.680;23.266;2022-12-18T23:19:54;17.67;;;8.13;;
76425;SDS011;65258;42.680;23.266;2022-12-18T23:22:19;14.32;;;7.60;;
76425;SDS011;65258;42.680;23.266;2022-12-18T23:24:45;18.48;;;7.93;;
76425;SDS011;65258;42.680;23.266;2022-12-18T23:27:11;14.63;;;6.97;;
76425;SDS011;65258;42.680;23.266;2022-12-18T23:29:36;15.90;;;8.35;;
76425;SDS011;65258;42.680;23.266;2022-12-18T23:32:02;16.02;;;7.75;;
76425;SDS011;65258;42.680;23.266;2022-12-18T23:34:28;17.00;;;8.02;;
76425;SDS011;65258;42.680;23.266;2022-12-18T23:36:53;15.45;;;8.23;;
76425;SDS011;65258;42.680;23.266;2022-12-18T23:39:19;19.27;;;8.43;;
76425;SDS011;65258;42.680;23.266;2022-12-18T23:41:44;20.55;;;8.68;;
76425;SDS011;65258;42.680;23.266;2022-12-18T23:44:10;16.42;;;7.97;;
76425;SDS011;65258;42.680;23.266;2022-12-18T23:46:35;17.23;;;7.53;;
76425;SDS011;65258;42.680;23.266;2022-12-18T23:49:02;17.40;;;7.20;;
76425;SDS011;65258;42.680;23.266;2022-12-18T23:51:29;18.50;;;9.02;;
76425;SDS011;65258;42.680;23.266;2022-12-18T23:53:56;20.42;;;7.88;;
76425;SDS011;65258;42.680;23.266;2022-12-18T23:56:24;18.73;;;7.38;;
76425;SDS011;65258;42.680;23.266;2022-12-18T23:58:51;14.45;;;7.63;;
